Time;durP1;ratioP1;P1;durP2;ratioP2;P2;SDS_P1;SDS_P2;PMS_P1;PMS_P2;Temp;Humidity;BMP_temperature;BMP_pressure;BME280_temperature;BME280_humidity;BME280_pressure;Samples;Min_cycle;Max_cycle;Signal;HPM_P1;HPM_P2
2022/05/05 00:01:21;;;;;;;8.27;7.23;;;;;;;;;;4940594;29;20200;-65
2022/05/05 00:03:48;;;;;;;8.52;7.22;;;;;;;;;;4943034;29;20306;-65
2022/05/05 00:06:15;;;;;;;7.88;7.07;;;;;;;;;;4940573;29;20235;-65
2022/05/05 00:08:42;;;;;;;8.77;7.85;;;;;;;;;;4939463;29;20239;-66
2022/05/05 00:16:40;;;;;;;12.85;7.45;;;;;;;;;;4941626;28;20202;-66
2022/05/05 00:19:07;;;;;;;9.00;7.80;;;;;;;;;;4946048;29;20210;-65
2022/05/05 00:21:34;;;;;;;8.97;7.60;;;;;;;;;;4942794;29;20204;-65
2022/05/05 00:24:02;;;;;;;9.07;7.60;;;;;;;;;;4942423;29;20310;-65
2022/05/05 00:26:29;;;;;;;11.80;7.30;;;;;;;;;;4942048;29;20218;-65
2022/05/05 00:28:56;;;;;;;8.27;7.37;;;;;;;;;;4946334;29;20233;-64
2022/05/05 00:31:23;;;;;;;8.80;7.57;;;;;;;;;;4946882;29;20235;-65
2022/05/05 00:33:51;;;;;;;8.17;6.23;;;;;;;;;;4952642;28;20211;-65
2022/05/05 00:36:18;;;;;;;9.17;7.23;;;;;;;;;;4952614;29;20215;-65
2022/05/05 00:38:45;;;;;;;8.70;7.90;;;;;;;;;;4952799;29;20222;-65
2022/05/05 00:41:12;;;;;;;9.87;8.10;;;;;;;;;;4952588;29;20207;-65
2022/05/05 00:43:39;;;;;;;8.03;7.23;;;;;;;;;;4951982;28;20218;-65
2022/05/05 00:46:06;;;;;;;8.80;7.90;;;;;;;;;;4951269;28;20210;-65
2022/05/05 00:48:33;;;;;;;11.70;8.13;;;;;;;;;;4950849;29;20670;-66
2022/05/05 00:51:01;;;;;;;7.55;6.85;;;;;;;;;;4949799;29;20734;-65
2022/05/05 00:53:29;;;;;;;8.73;7.33;;;;;;;;;;4950257;29;20686;-65
2022/05/05 00:55:57;;;;;;;9.97;7.57;;;;;;;;;;4948402;29;20218;-65
2022/05/05 00:58:24;;;;;;;8.53;7.60;;;;;;;;;;4950192;29;20211;-65
2022/05/05 01:00:52;;;;;;;9.17;7.77;;;;;;;;;;4949816;29;20674;-65
2022/05/05 01:03:19;;;;;;;7.90;7.10;;;;;;;;;;4950815;29;20210;-65
2022/05/05 01:05:46;;;;;;;9.77;7.80;;;;;;;;;;4951109;28;20231;-64
2022/05/05 01:08:14;;;;;;;8.47;6.77;;;;;;;;;;4950497;28;20203;-64
2022/05/05 01:10:41;;;;;;;7.37;6.70;;;;;;;;;;4950733;29;20685;-64
2022/05/05 01:13:25;;;;;;;7.40;6.77;;;;;;;;;;4951008;29;20227;-67
2022/05/05 01:15:52;;;;;;;7.47;6.67;;;;;;;;;;4948895;29;20686;-64
2022/05/05 01:18:20;;;;;;;7.57;6.93;;;;;;;;;;4950631;28;20208;-64
2022/05/05 01:20:47;;;;;;;8.43;7.63;;;;;;;;;;4950686;29;20207;-64
2022/05/05 01:23:16;;;;;;;8.60;7.50;;;;;;;;;;4951471;28;20615;-64
2022/05/05 01:28:29;;;;;;;8.27;7.13;;;;;;;;;;4950542;28;20214;-64
2022/05/05 01:30:56;;;;;;;10.10;7.20;;;;;;;;;;4951347;29;20207;-64
2022/05/05 01:33:24;;;;;;;9.23;7.57;;;;;;;;;;4951470;29;20230;-65
2022/05/05 01:35:53;;;;;;;7.47;6.10;;;;;;;;;;4951705;28;20222;-64
2022/05/05 01:38:22;;;;;;;9.13;7.60;;;;;;;;;;4951507;29;20207;-65
2022/05/05 01:40:49;;;;;;;8.83;7.80;;;;;;;;;;4949303;29;20203;-65
2022/05/05 01:43:17;;;;;;;9.60;7.10;;;;;;;;;;4949138;29;20477;-64
2022/05/05 01:45:44;;;;;;;9.47;7.73;;;;;;;;;;4949742;28;20203;-65
2022/05/05 01:48:12;;;;;;;8.60;7.47;;;;;;;;;;4945650;29;20215;-65
2022/05/05 01:50:39;;;;;;;7.87;7.07;;;;;;;;;;4949443;29;20215;-65
2022/05/05 01:53:07;;;;;;;8.87;7.97;;;;;;;;;;4949150;29;20238;-65
2022/05/05 01:55:35;;;;;;;8.43;7.57;;;;;;;;;;4949539;29;20211;-65
2022/05/05 01:58:03;;;;;;;8.25;7.53;;;;;;;;;;4948395;29;20207;-65
2022/05/05 02:00:31;;;;;;;9.23;7.97;;;;;;;;;;4949244;29;20203;-65
2022/05/05 02:02:58;;;;;;;9.03;7.87;;;;;;;;;;4949194;29;20567;-65
2022/05/05 02:05:25;;;;;;;9.13;7.40;;;;;;;;;;4948768;29;21890;-65
2022/05/05 02:07:52;;;;;;;7.93;7.13;;;;;;;;;;4948520;29;20211;-64
2022/05/05 02:10:20;;;;;;;10.77;7.60;;;;;;;;;;4948040;29;20283;-65
2022/05/05 02:12:51;;;;;;;11.40;8.70;;;;;;;;;;4948358;28;20868;-64
2022/05/05 02:15:18;;;;;;;9.70;7.57;;;;;;;;;;4946580;29;20274;-65
2022/05/05 02:17:45;;;;;;;9.17;7.73;;;;;;;;;;4948583;28;20211;-65
2022/05/05 02:20:13;;;;;;;10.00;8.27;;;;;;;;;;4947742;28;20297;-65
2022/05/05 02:22:40;;;;;;;8.50;7.70;;;;;;;;;;4948843;29;20210;-65
2022/05/05 02:25:08;;;;;;;13.57;8.53;;;;;;;;;;4947724;29;20560;-65
2022/05/05 02:27:52;;;;;;;10.27;9.00;;;;;;;;;;4948893;28;20207;-65
2022/05/05 02:30:20;;;;;;;9.97;8.17;;;;;;;;;;4947977;29;20210;-65
2022/05/05 02:32:48;;;;;;;10.13;8.63;;;;;;;;;;4948247;28;20226;-65
2022/05/05 02:35:15;;;;;;;10.57;8.37;;;;;;;;;;4948091;29;20227;-65
2022/05/05 02:40:27;;;;;;;12.60;9.20;;;;;;;;;;4947443;28;20254;-66
2022/05/05 02:42:57;;;;;;;12.20;8.73;;;;;;;;;;4948221;29;20226;-66
2022/05/05 02:45:24;;;;;;;11.47;7.80;;;;;;;;;;4947866;29;20210;-66
2022/05/05 02:47:51;;;;;;;9.90;8.57;;;;;;;;;;4947675;28;20289;-66
2022/05/05 02:50:19;;;;;;;12.20;8.93;;;;;;;;;;4947358;29;20204;-66
2022/05/05 02:52:46;;;;;;;11.73;8.60;;;;;;;;;;4948136;29;20223;-66
2022/05/05 02:55:12;;;;;;;9.23;8.33;;;;;;;;;;4947524;28;20214;-66
2022/05/05 02:57:39;;;;;;;12.00;8.37;;;;;;;;;;4949260;29;20215;-66
2022/05/05 03:00:10;;;;;;;9.80;8.30;;;;;;;;;;4948113;29;20218;-66
2022/05/05 03:02:37;;;;;;;10.03;8.23;;;;;;;;;;4948757;28;20199;-66
2022/05/05 03:05:05;;;;;;;10.10;8.80;;;;;;;;;;4948171;28;20206;-66
2022/05/05 03:07:32;;;;;;;10.73;9.13;;;;;;;;;;4948542;28;20827;-66
2022/05/05 03:09:59;;;;;;;9.63;8.63;;;;;;;;;;4949966;28;20235;-66
2022/05/05 03:12:26;;;;;;;10.93;7.87;;;;;;;;;;4958434;28;20234;-66
2022/05/05 03:14:53;;;;;;;13.10;8.63;;;;;;;;;;4956202;28;20660;-66
2022/05/05 03:17:22;;;;;;;8.83;7.93;;;;;;;;;;4950197;28;20203;-66
2022/05/05 03:19:49;;;;;;;10.63;8.43;;;;;;;;;;4948665;28;20210;-65
2022/05/05 03:22:16;;;;;;;13.37;8.70;;;;;;;;;;4953492;28;20302;-65
2022/05/05 03:24:43;;;;;;;13.53;8.53;;;;;;;;;;4950506;28;20716;-65
2022/05/05 03:27:10;;;;;;;10.57;8.50;;;;;;;;;;4953702;28;20211;-65
2022/05/05 03:29:37;;;;;;;9.67;8.53;;;;;;;;;;4950350;28;20207;-65
2022/05/05 03:32:04;;;;;;;9.10;8.10;;;;;;;;;;4953849;28;20846;-65
2022/05/05 03:34:32;;;;;;;12.97;9.40;;;;;;;;;;4965444;28;20761;-65
2022/05/05 03:36:59;;;;;;;9.57;8.57;;;;;;;;;;4955280;28;20203;-65
2022/05/05 03:39:26;;;;;;;10.33;8.67;;;;;;;;;;4950287;28;20211;-65
2022/05/05 03:41:54;;;;;;;12.13;8.23;;;;;;;;;;4950063;28;20203;-65
2022/05/05 03:44:21;;;;;;;11.23;9.10;;;;;;;;;;4950322;28;20245;-65
2022/05/05 03:46:48;;;;;;;9.13;8.07;;;;;;;;;;4956745;28;20301;-65
2022/05/05 03:49:16;;;;;;;10.60;8.60;;;;;;;;;;4965974;28;20245;-65
2022/05/05 03:51:44;;;;;;;13.77;9.50;;;;;;;;;;4959497;28;20202;-65
2022/05/05 03:54:11;;;;;;;10.37;8.47;;;;;;;;;;4969780;28;20202;-65
2022/05/05 03:56:38;;;;;;;10.97;8.80;;;;;;;;;;4956930;28;20222;-65
2022/05/05 03:59:06;;;;;;;11.73;9.37;;;;;;;;;;4966250;28;20615;-65
2022/05/05 04:01:33;;;;;;;11.33;8.80;;;;;;;;;;4953274;28;20547;-65
2022/05/05 04:04:00;;;;;;;10.13;8.27;;;;;;;;;;4953167;28;20203;-64
2022/05/05 04:06:27;;;;;;;11.90;8.90;;;;;;;;;;4953928;28;20223;-65
2022/05/05 04:08:55;;;;;;;12.47;8.50;;;;;;;;;;4952920;28;20296;-65
2022/05/05 04:11:22;;;;;;;11.30;9.07;;;;;;;;;;4951923;29;20215;-65
2022/05/05 04:13:49;;;;;;;12.80;9.23;;;;;;;;;;4952043;28;20223;-65
2022/05/05 04:16:16;;;;;;;10.27;8.87;;;;;;;;;;4951772;28;20552;-65
2022/05/05 04:18:44;;;;;;;12.57;9.50;;;;;;;;;;4948183;29;20207;-65
2022/05/05 04:21:12;;;;;;;11.23;8.60;;;;;;;;;;4951783;29;20305;-62
2022/05/05 04:23:39;;;;;;;12.73;9.33;;;;;;;;;;4952532;28;20305;-65
2022/05/05 04:26:07;;;;;;;11.93;9.30;;;;;;;;;;4951530;29;20203;-64
2022/05/05 04:28:35;;;;;;;11.93;9.53;;;;;;;;;;4952547;29;20208;-65
2022/05/05 04:31:02;;;;;;;12.57;8.77;;;;;;;;;;4951130;29;20215;-65
2022/05/05 04:33:29;;;;;;;12.80;9.23;;;;;;;;;;4951882;28;20222;-64
2022/05/05 04:35:56;;;;;;;13.53;9.27;;;;;;;;;;4952044;29;20214;-65
2022/05/05 04:38:23;;;;;;;10.30;9.05;;;;;;;;;;4951617;29;20552;-65
2022/05/05 04:40:50;;;;;;;11.70;9.47;;;;;;;;;;4951889;28;20218;-65
2022/05/05 04:43:19;;;;;;;10.73;9.13;;;;;;;;;;4950988;29;20965;-65
2022/05/05 04:45:46;;;;;;;11.90;9.70;;;;;;;;;;4944507;29;20218;-65
2022/05/05 04:48:13;;;;;;;10.70;9.10;;;;;;;;;;4951698;28;20211;-65
2022/05/05 04:50:40;;;;;;;12.57;9.43;;;;;;;;;;4951748;28;20211;-65
2022/05/05 04:53:07;;;;;;;12.83;9.60;;;;;;;;;;4948335;29;20226;-66
2022/05/05 04:55:34;;;;;;;11.50;9.15;;;;;;;;;;4951519;29;20219;-65
2022/05/05 04:58:01;;;;;;;13.67;9.77;;;;;;;;;;4951755;29;20682;-65
2022/05/05 05:00:30;;;;;;;13.20;10.00;;;;;;;;;;4951210;29;20203;-65
2022/05/05 05:02:57;;;;;;;11.00;9.37;;;;;;;;;;4949300;28;20298;-65
2022/05/05 05:05:24;;;;;;;12.23;8.90;;;;;;;;;;4950781;28;20230;-65
2022/05/05 05:07:51;;;;;;;12.97;10.23;;;;;;;;;;4951047;28;20609;-63
2022/05/05 05:10:18;;;;;;;13.33;9.97;;;;;;;;;;4950988;29;20238;-64
2022/05/05 05:12:45;;;;;;;13.77;10.00;;;;;;;;;;4950985;28;20227;-62
2022/05/05 05:15:12;;;;;;;13.73;10.53;;;;;;;;;;4950721;29;20210;-63
2022/05/05 05:17:41;;;;;;;12.63;9.97;;;;;;;;;;4950644;29;20610;-63
2022/05/05 05:20:09;;;;;;;11.67;9.63;;;;;;;;;;4951571;28;20215;-63
2022/05/05 05:22:37;;;;;;;13.50;9.83;;;;;;;;;;4948452;29;20297;-63
2022/05/05 05:25:04;;;;;;;13.63;10.20;;;;;;;;;;4952107;28;20617;-63
2022/05/05 05:27:31;;;;;;;13.40;10.03;;;;;;;;;;4951705;29;20623;-63
2022/05/05 05:29:58;;;;;;;13.97;9.70;;;;;;;;;;4952087;29;20207;-63
2022/05/05 05:32:25;;;;;;;11.17;9.47;;;;;;;;;;4951100;29;20211;-63
2022/05/05 05:34:54;;;;;;;11.63;9.43;;;;;;;;;;4951249;29;20222;-63
2022/05/05 05:37:21;;;;;;;12.87;10.30;;;;;;;;;;4949913;28;20211;-64
2022/05/05 05:39:48;;;;;;;13.73;10.63;;;;;;;;;;4951901;29;20337;-63
2022/05/05 05:42:15;;;;;;;13.63;10.60;;;;;;;;;;4952063;29;20215;-63
2022/05/05 05:44:42;;;;;;;15.20;10.43;;;;;;;;;;4951608;29;20215;-63
2022/05/05 05:47:10;;;;;;;14.97;10.83;;;;;;;;;;4951952;29;20297;-63
2022/05/05 05:49:37;;;;;;;10.53;9.27;;;;;;;;;;4950569;29;20905;-63
2022/05/05 05:52:06;;;;;;;11.77;8.97;;;;;;;;;;4947673;29;20211;-63
2022/05/05 05:54:33;;;;;;;12.33;8.87;;;;;;;;;;4950629;29;20231;-70
2022/05/05 05:57:00;;;;;;;9.77;8.00;;;;;;;;;;4950923;28;20259;-63
2022/05/05 06:04:53;;;;;;;13.07;9.43;;;;;;;;;;4951056;28;20210;-63
2022/05/05 06:07:22;;;;;;;13.37;9.03;;;;;;;;;;4950701;29;20211;-64
2022/05/05 06:09:49;;;;;;;10.60;9.10;;;;;;;;;;4950113;29;20360;-64
2022/05/05 06:12:16;;;;;;;12.13;8.00;;;;;;;;;;4950213;29;20702;-64
2022/05/05 06:14:43;;;;;;;11.83;7.90;;;;;;;;;;4949523;28;20266;-64
2022/05/05 06:17:10;;;;;;;15.00;7.67;;;;;;;;;;4949866;29;20211;-64
2022/05/05 06:19:38;;;;;;;12.00;8.30;;;;;;;;;;4950617;29;20218;-64
2022/05/05 06:22:05;;;;;;;14.15;8.35;;;;;;;;;;4950351;29;20703;-64
2022/05/05 06:24:33;;;;;;;11.43;7.43;;;;;;;;;;4950487;29;20215;-63
2022/05/05 06:27:00;;;;;;;9.63;7.70;;;;;;;;;;4949813;29;20215;-64
2022/05/05 06:29:30;;;;;;;13.65;8.70;;;;;;;;;;4950389;29;20218;-63
2022/05/05 06:32:00;;;;;;;11.63;8.90;;;;;;;;;;4950095;29;20226;-62
2022/05/05 06:34:28;;;;;;;14.07;8.48;;;;;;;;;;4950274;29;20265;-64
2022/05/05 06:36:55;;;;;;;11.10;7.27;;;;;;;;;;4949971;29;20213;-64
2022/05/05 06:39:22;;;;;;;9.50;8.13;;;;;;;;;;4945007;29;20572;-65
2022/05/05 06:41:50;;;;;;;10.30;8.27;;;;;;;;;;4946806;29;20207;-63
2022/05/05 06:44:17;;;;;;;12.47;8.43;;;;;;;;;;4949996;29;20211;-63
2022/05/05 06:46:44;;;;;;;12.33;8.30;;;;;;;;;;4946981;29;20215;-63
2022/05/05 06:49:12;;;;;;;10.85;7.88;;;;;;;;;;4941417;29;20290;-64
2022/05/05 06:51:39;;;;;;;9.32;8.15;;;;;;;;;;4940656;29;20570;-63
2022/05/05 06:54:06;;;;;;;12.67;8.80;;;;;;;;;;4933874;29;20368;-63
2022/05/05 06:56:33;;;;;;;11.70;8.60;;;;;;;;;;4950059;29;20217;-63
2022/05/05 06:59:01;;;;;;;13.67;8.47;;;;;;;;;;4949671;29;20207;-63
2022/05/05 07:06:58;;;;;;;9.18;7.63;;;;;;;;;;4949402;29;20254;-62
2022/05/05 07:12:09;;;;;;;11.27;9.32;;;;;;;;;;4918584;29;20213;-62
2022/05/05 07:14:37;;;;;;;11.35;8.05;;;;;;;;;;4948148;28;20662;-62
2022/05/05 07:17:05;;;;;;;9.98;7.93;;;;;;;;;;4945426;29;20206;-60
2022/05/05 07:19:32;;;;;;;10.52;7.78;;;;;;;;;;4949693;29;20225;-60
2022/05/05 07:21:59;;;;;;;10.30;7.38;;;;;;;;;;4949865;29;20221;-61
2022/05/05 07:24:26;;;;;;;10.70;7.90;;;;;;;;;;4949329;28;20619;-68
2022/05/05 07:26:53;;;;;;;17.38;8.57;;;;;;;;;;4952309;28;20262;-62
2022/05/05 07:29:20;;;;;;;9.35;7.97;;;;;;;;;;4953373;29;20223;-62
2022/05/05 07:31:58;;;;;;;9.57;7.87;;;;;;;;;;4953125;29;20199;-62
2022/05/05 07:34:25;;;;;;;14.05;7.93;;;;;;;;;;4951865;28;20227;-62
2022/05/05 07:36:52;;;;;;;10.52;7.82;;;;;;;;;;4953080;29;20203;-62
2022/05/05 07:39:19;;;;;;;8.73;7.65;;;;;;;;;;4952833;29;20214;-63
2022/05/05 07:41:46;;;;;;;7.80;7.00;;;;;;;;;;4952849;28;20592;-62
2022/05/05 07:44:13;;;;;;;7.72;6.93;;;;;;;;;;4952421;29;20284;-61
2022/05/05 07:46:40;;;;;;;15.07;7.82;;;;;;;;;;4946678;28;20215;-61
2022/05/05 07:49:09;;;;;;;11.90;8.02;;;;;;;;;;4953512;29;20213;-62
2022/05/05 07:51:36;;;;;;;8.73;7.40;;;;;;;;;;4953146;29;20215;-62
2022/05/05 07:56:51;;;;;;;7.93;6.93;;;;;;;;;;4949769;28;20213;-62
2022/05/05 07:59:18;;;;;;;8.30;6.72;;;;;;;;;;4953057;29;20227;-61
2022/05/05 08:01:45;;;;;;;8.82;7.18;;;;;;;;;;4952415;29;20211;-62
2022/05/05 08:04:13;;;;;;;8.50;7.35;;;;;;;;;;4948784;29;20199;-62
2022/05/05 08:06:41;;;;;;;12.35;8.20;;;;;;;;;;4952806;28;20227;-61
2022/05/05 08:09:08;;;;;;;9.27;7.55;;;;;;;;;;4953033;28;20258;-62
2022/05/05 08:11:36;;;;;;;8.05;7.20;;;;;;;;;;4953373;29;20579;-61
2022/05/05 08:14:03;;;;;;;13.45;7.95;;;;;;;;;;4952844;29;20234;-62
2022/05/05 08:16:30;;;;;;;9.07;7.50;;;;;;;;;;4944086;29;20509;-62
2022/05/05 08:18:57;;;;;;;9.82;8.30;;;;;;;;;;4947803;29;20214;-62
2022/05/05 08:21:26;;;;;;;8.07;7.25;;;;;;;;;;4953478;29;20218;-62
2022/05/05 08:28:28;;;;;;;11.40;8.50;;;;;;;;;;4948992;29;20556;-61
2022/05/05 08:29:26;;;;;;;9.50;7.15;;;;;;;;;;4951015;29;20213;-61
2022/05/05 08:31:53;;;;;;;11.10;7.20;;;;;;;;;;4952812;29;20582;-62
2022/05/05 08:34:20;;;;;;;10.45;8.32;;;;;;;;;;4952534;29;20298;-58
2022/05/05 08:36:49;;;;;;;8.77;7.85;;;;;;;;;;4951155;28;20207;-61
2022/05/05 08:39:16;;;;;;;11.40;7.72;;;;;;;;;;4946848;28;20265;-61
2022/05/05 08:41:44;;;;;;;10.95;8.15;;;;;;;;;;4952216;28;20258;-59
2022/05/05 08:44:11;;;;;;;12.77;8.52;;;;;;;;;;4950829;28;20269;-59
2022/05/05 08:46:38;;;;;;;9.38;8.15;;;;;;;;;;4950860;29;20208;-62
2022/05/05 08:49:06;;;;;;;11.18;8.07;;;;;;;;;;4952623;28;20211;-61
2022/05/05 08:51:38;;;;;;;12.68;7.28;;;;;;;;;;4951118;29;20234;-64
2022/05/05 08:54:08;;;;;;;11.05;8.00;;;;;;;;;;4952727;28;20321;-63
2022/05/05 08:56:35;;;;;;;10.35;7.43;;;;;;;;;;4952368;29;20214;-64
2022/05/05 08:59:03;;;;;;;8.70;6.75;;;;;;;;;;4952016;28;20344;-60
2022/05/05 09:01:38;;;;;;;7.90;7.05;;;;;;;;;;4966281;28;20236;-63
2022/05/05 09:04:05;;;;;;;11.55;7.78;;;;;;;;;;4957295;28;20846;-61
2022/05/05 09:06:42;;;;;;;7.07;6.47;;;;;;;;;;4952317;29;20658;-65
2022/05/05 09:09:23;;;;;;;9.18;7.22;;;;;;;;;;4952529;28;20330;-64
2022/05/05 09:12:05;;;;;;;10.40;6.63;;;;;;;;;;4947263;28;20213;-62
2022/05/05 09:14:36;;;;;;;8.98;6.40;;;;;;;;;;4949079;29;20709;-60
2022/05/05 09:17:04;;;;;;;6.95;6.25;;;;;;;;;;4951986;29;20211;-62
2022/05/05 09:19:35;;;;;;;7.90;6.13;;;;;;;;;;4954180;28;20215;-62
2022/05/05 09:22:03;;;;;;;9.20;6.13;;;;;;;;;;4952051;29;20717;-61
2022/05/05 09:24:40;;;;;;;7.10;5.80;;;;;;;;;;4959063;28;20211;-61
2022/05/05 09:27:33;;;;;;;6.70;5.30;;;;;;;;;;4966277;28;20203;-62
2022/05/05 09:30:05;;;;;;;7.57;5.63;;;;;;;;;;4946561;28;20203;-63
2022/05/05 09:32:34;;;;;;;7.75;5.72;;;;;;;;;;4951992;29;20705;-62
2022/05/05 09:35:03;;;;;;;6.72;5.82;;;;;;;;;;4954833;28;20658;-61
2022/05/05 09:37:30;;;;;;;8.57;6.07;;;;;;;;;;4953854;28;20203;-60
2022/05/05 09:39:59;;;;;;;8.07;6.10;;;;;;;;;;4951903;29;20238;-64
2022/05/05 09:42:36;;;;;;;7.15;6.45;;;;;;;;;;4951249;29;20220;-62
2022/05/05 09:45:19;;;;;;;6.80;6.15;;;;;;;;;;4947807;29;20203;-63
2022/05/05 09:47:52;;;;;;;6.03;5.45;;;;;;;;;;4950917;28;20230;-64
2022/05/05 09:50:20;;;;;;;11.27;5.68;;;;;;;;;;4949875;28;20211;-64
2022/05/05 09:58:21;;;;;;;7.10;5.50;;;;;;;;;;4944932;28;20229;-66
2022/05/05 10:00:55;;;;;;;6.95;5.22;;;;;;;;;;4946493;28;20218;-62
2022/05/05 10:06:12;;;;;;;5.25;4.45;;;;;;;;;;4954277;28;20289;-63
2022/05/05 10:08:42;;;;;;;4.07;3.70;;;;;;;;;;4949705;29;20329;-62
2022/05/05 10:11:12;;;;;;;4.35;3.55;;;;;;;;;;4953447;28;20211;-63
2022/05/05 10:13:39;;;;;;;3.88;3.58;;;;;;;;;;4952644;28;20223;-64
2022/05/05 10:16:07;;;;;;;5.22;3.75;;;;;;;;;;4960583;28;20218;-64
2022/05/05 10:18:37;;;;;;;5.47;3.97;;;;;;;;;;4954302;28;20242;-64
2022/05/05 10:21:04;;;;;;;7.15;3.95;;;;;;;;;;4951656;28;20745;-66
2022/05/05 10:23:34;;;;;;;5.40;4.38;;;;;;;;;;4954488;28;20219;-64
2022/05/05 10:26:01;;;;;;;3.92;3.55;;;;;;;;;;4939356;28;20317;-63
2022/05/05 10:28:43;;;;;;;6.00;4.43;;;;;;;;;;4950238;28;20586;-63
2022/05/05 10:31:13;;;;;;;6.78;4.40;;;;;;;;;;4949916;29;20277;-63
2022/05/05 10:34:00;;;;;;;4.07;3.75;;;;;;;;;;4950040;28;20690;-64
2022/05/05 10:36:27;;;;;;;5.57;4.00;;;;;;;;;;4950438;28;20211;-64
2022/05/05 10:38:55;;;;;;;4.18;3.63;;;;;;;;;;4948024;29;20215;-64
2022/05/05 10:41:39;;;;;;;6.72;4.57;;;;;;;;;;4958585;28;20677;-64
2022/05/05 10:44:25;;;;;;;4.40;4.00;;;;;;;;;;4957541;28;20687;-65
2022/05/05 10:46:59;;;;;;;4.78;3.83;;;;;;;;;;4951243;28;20206;-62
2022/05/05 10:49:48;;;;;;;4.60;4.30;;;;;;;;;;4948953;29;20226;-62
2022/05/05 10:52:34;;;;;;;5.10;3.85;;;;;;;;;;4959046;28;20238;-62
2022/05/05 10:55:20;;;;;;;4.35;3.92;;;;;;;;;;4950183;28;20298;-64
2022/05/05 10:57:47;;;;;;;4.93;3.92;;;;;;;;;;4951073;28;20245;-61
2022/05/05 11:00:18;;;;;;;6.82;4.10;;;;;;;;;;4953493;28;20210;-62
2022/05/05 11:03:00;;;;;;;4.32;3.92;;;;;;;;;;4960191;28;20222;-63
2022/05/05 11:05:28;;;;;;;4.32;3.97;;;;;;;;;;4957884;28;20313;-64
2022/05/05 11:07:56;;;;;;;3.47;3.15;;;;;;;;;;4949635;29;20724;-64
2022/05/05 11:10:42;;;;;;;6.78;4.03;;;;;;;;;;4958517;28;20719;-60
2022/05/05 11:13:09;;;;;;;5.00;3.92;;;;;;;;;;4957930;28;20590;-59
2022/05/05 11:21:35;;;;;;;6.00;3.47;;;;;;;;;;4954026;28;20246;-68
2022/05/05 11:24:03;;;;;;;3.80;2.67;;;;;;;;;;4939276;28;20286;-69
2022/05/05 11:26:31;;;;;;;5.50;3.83;;;;;;;;;;4941961;28;20207;-62
2022/05/05 11:28:59;;;;;;;4.32;3.60;;;;;;;;;;4944782;28;20238;-60
2022/05/05 11:31:30;;;;;;;3.78;3.50;;;;;;;;;;4955744;28;20207;-62
2022/05/05 11:33:58;;;;;;;5.10;4.10;;;;;;;;;;4944150;28;20211;-64
2022/05/05 11:36:28;;;;;;;5.35;3.72;;;;;;;;;;4951412;28;20230;-60
2022/05/05 11:38:55;;;;;;;9.70;3.92;;;;;;;;;;4954652;28;20219;-62
2022/05/05 11:41:22;;;;;;;4.60;4.25;;;;;;;;;;4936764;28;20646;-62
2022/05/05 11:46:38;;;;;;;4.15;3.75;;;;;;;;;;4944710;28;20278;-63
2022/05/05 11:49:05;;;;;;;4.22;3.92;;;;;;;;;;4949679;28;20238;-67
2022/05/05 11:51:33;;;;;;;5.38;4.75;;;;;;;;;;4947666;28;20272;-62
2022/05/05 11:54:01;;;;;;;5.38;4.25;;;;;;;;;;4945593;29;20211;-62
2022/05/05 11:56:28;;;;;;;8.57;3.88;;;;;;;;;;4951183;28;20246;-65
2022/05/05 12:01:42;;;;;;;4.25;3.88;;;;;;;;;;4942191;28;20673;-66
2022/05/05 12:04:10;;;;;;;4.03;3.72;;;;;;;;;;4941498;28;20217;-62
2022/05/05 12:06:38;;;;;;;4.38;3.90;;;;;;;;;;4941065;28;21058;-63
2022/05/05 12:09:06;;;;;;;3.67;3.38;;;;;;;;;;4928738;28;20306;-65
2022/05/05 12:11:33;;;;;;;5.55;3.40;;;;;;;;;;4923371;29;20220;-60
2022/05/05 12:14:02;;;;;;;4.70;4.00;;;;;;;;;;4926079;29;20216;-61
2022/05/05 12:16:32;;;;;;;4.07;3.70;;;;;;;;;;4921055;29;20310;-60
2022/05/05 12:19:01;;;;;;;5.85;4.50;;;;;;;;;;4928753;29;20267;-64
2022/05/05 12:21:28;;;;;;;4.50;4.03;;;;;;;;;;4930200;29;20673;-64
2022/05/05 12:24:00;;;;;;;3.40;3.08;;;;;;;;;;4929595;29;20223;-64
2022/05/05 12:26:30;;;;;;;5.38;3.20;;;;;;;;;;4930233;29;20299;-64
2022/05/05 12:28:58;;;;;;;3.97;3.63;;;;;;;;;;4930407;29;20219;-64
2022/05/05 12:31:25;;;;;;;5.93;3.42;;;;;;;;;;4929694;29;20215;-64
2022/05/05 12:33:52;;;;;;;8.20;4.03;;;;;;;;;;4930040;29;20303;-64
2022/05/05 12:36:26;;;;;;;3.90;2.83;;;;;;;;;;4930395;29;20227;-69
2022/05/05 12:38:53;;;;;;;4.18;2.80;;;;;;;;;;4926881;29;20766;-64
2022/05/05 12:41:20;;;;;;;4.40;3.00;;;;;;;;;;4930272;29;20327;-64
2022/05/05 12:43:47;;;;;;;2.70;2.50;;;;;;;;;;4929876;29;20208;-65
2022/05/05 12:46:17;;;;;;;2.88;2.67;;;;;;;;;;4923389;29;20321;-65
2022/05/05 12:48:45;;;;;;;4.63;2.78;;;;;;;;;;4929976;29;20258;-65
2022/05/05 12:51:16;;;;;;;4.10;2.83;;;;;;;;;;4925307;29;20614;-64
2022/05/05 13:01:59;;;;;;;3.92;2.72;;;;;;;;;;4925357;29;20578;-64
2022/05/05 13:04:26;;;;;;;3.45;2.85;;;;;;;;;;4927196;29;20215;-64
2022/05/05 13:06:53;;;;;;;2.42;2.22;;;;;;;;;;4926189;29;20243;-65
2022/05/05 13:09:22;;;;;;;2.78;2.55;;;;;;;;;;4931849;29;20322;-65
2022/05/05 13:11:51;;;;;;;2.72;2.53;;;;;;;;;;4939294;29;20223;-64
2022/05/05 13:14:20;;;;;;;3.17;2.88;;;;;;;;;;4944302;29;20226;-64
2022/05/05 13:16:47;;;;;;;2.08;1.88;;;;;;;;;;4937859;29;20238;-65
2022/05/05 13:19:14;;;;;;;4.22;2.58;;;;;;;;;;4941593;29;20215;-64
2022/05/05 13:21:41;;;;;;;2.28;2.17;;;;;;;;;;4939495;29;20218;-65
2022/05/05 13:24:09;;;;;;;2.22;2.00;;;;;;;;;;4937904;28;20214;-65
2022/05/05 13:26:39;;;;;;;4.20;2.22;;;;;;;;;;4938423;29;20211;-64
2022/05/05 13:29:06;;;;;;;4.00;2.20;;;;;;;;;;4939836;29;20212;-64
2022/05/05 13:31:33;;;;;;;2.20;1.92;;;;;;;;;;4940914;29;20267;-63
2022/05/05 13:34:00;;;;;;;4.22;2.47;;;;;;;;;;4938722;28;20216;-64
2022/05/05 13:36:28;;;;;;;4.10;2.30;;;;;;;;;;4941614;29;20249;-64
2022/05/05 13:38:56;;;;;;;2.28;2.17;;;;;;;;;;4939031;29;20203;-62
2022/05/05 13:41:23;;;;;;;4.88;2.20;;;;;;;;;;4937780;28;20246;-63
2022/05/05 13:43:51;;;;;;;2.20;2.10;;;;;;;;;;4939279;29;20213;-63
2022/05/05 13:46:18;;;;;;;3.25;2.30;;;;;;;;;;4936092;29;20733;-63
2022/05/05 13:48:46;;;;;;;3.20;1.83;;;;;;;;;;4937594;28;20219;-63
2022/05/05 13:51:14;;;;;;;2.45;2.08;;;;;;;;;;4938854;28;20859;-64
2022/05/05 13:53:41;;;;;;;4.43;2.20;;;;;;;;;;4938356;29;20291;-64
2022/05/05 13:56:09;;;;;;;2.90;2.70;;;;;;;;;;4938444;28;20245;-64
2022/05/05 13:58:36;;;;;;;3.70;2.28;;;;;;;;;;4942343;29;20325;-64
2022/05/05 14:01:04;;;;;;;5.55;2.50;;;;;;;;;;4939258;29;20226;-64
2022/05/05 14:03:31;;;;;;;2.47;2.30;;;;;;;;;;4941396;29;20207;-66
2022/05/05 14:05:59;;;;;;;2.42;2.22;;;;;;;;;;4938302;29;20219;-66
2022/05/05 14:13:58;;;;;;;5.55;1.90;;;;;;;;;;4940397;29;20757;-66
2022/05/05 14:16:27;;;;;;;2.80;2.60;;;;;;;;;;4936499;28;20241;-65
2022/05/05 14:18:54;;;;;;;1.73;1.63;;;;;;;;;;4939044;29;20303;-65
2022/05/05 14:21:21;;;;;;;2.22;2.00;;;;;;;;;;4940367;28;20675;-66
2022/05/05 14:23:48;;;;;;;2.30;1.73;;;;;;;;;;4939157;28;20223;-66
2022/05/05 14:26:15;;;;;;;4.72;2.08;;;;;;;;;;4935900;29;20221;-65
2022/05/05 14:28:42;;;;;;;2.88;2.53;;;;;;;;;;4941589;29;20219;-66
2022/05/05 14:31:09;;;;;;;6.20;2.45;;;;;;;;;;4938193;28;20212;-66
2022/05/05 14:33:38;;;;;;;2.30;2.20;;;;;;;;;;4939516;28;20250;-65
2022/05/05 14:36:05;;;;;;;3.25;2.50;;;;;;;;;;4935014;28;20235;-65
2022/05/05 14:38:32;;;;;;;2.35;2.13;;;;;;;;;;4939687;29;20211;-65
2022/05/05 14:41:00;;;;;;;3.28;2.55;;;;;;;;;;4936866;28;20216;-66
2022/05/05 14:43:27;;;;;;;3.22;2.15;;;;;;;;;;4939095;29;20265;-65
2022/05/05 14:45:55;;;;;;;2.10;2.00;;;;;;;;;;4935563;29;20199;-66
2022/05/05 14:48:22;;;;;;;3.63;2.25;;;;;;;;;;4933405;29;20211;-65
2022/05/05 14:50:51;;;;;;;2.17;2.08;;;;;;;;;;4935310;29;20985;-65
2022/05/05 14:53:18;;;;;;;2.53;2.33;;;;;;;;;;4938934;29;20825;-65
2022/05/05 14:55:45;;;;;;;2.80;2.60;;;;;;;;;;4939281;29;20230;-65
2022/05/05 14:58:12;;;;;;;3.55;2.50;;;;;;;;;;4940901;29;20940;-65
2022/05/05 15:00:39;;;;;;;3.00;2.67;;;;;;;;;;4936183;29;20211;-64
2022/05/05 15:03:07;;;;;;;11.68;2.60;;;;;;;;;;4932987;29;20298;-65
2022/05/05 15:05:34;;;;;;;3.15;2.10;;;;;;;;;;4936561;29;20222;-62
2022/05/05 15:08:04;;;;;;;15.35;3.33;;;;;;;;;;4936777;29;20477;-63
2022/05/05 15:10:31;;;;;;;3.40;2.40;;;;;;;;;;4938455;29;20250;-65
2022/05/05 15:12:59;;;;;;;2.15;2.05;;;;;;;;;;4937189;29;20211;-66
2022/05/05 15:15:26;;;;;;;3.15;2.08;;;;;;;;;;4935897;29;20211;-64
2022/05/05 15:17:54;;;;;;;2.03;1.92;;;;;;;;;;4936554;29;20282;-64
2022/05/05 15:20:21;;;;;;;2.20;2.10;;;;;;;;;;4935653;29;20216;-64
2022/05/05 15:22:48;;;;;;;2.63;2.42;;;;;;;;;;4936129;29;20257;-63
2022/05/05 15:25:16;;;;;;;2.80;2.45;;;;;;;;;;4940167;29;20195;-64
2022/05/05 15:27:44;;;;;;;3.67;2.20;;;;;;;;;;4939576;28;20274;-65
2022/05/05 15:30:12;;;;;;;2.22;2.03;;;;;;;;;;4938234;29;20295;-64
2022/05/05 15:32:39;;;;;;;3.42;2.10;;;;;;;;;;4935737;29;20674;-64
2022/05/05 15:35:09;;;;;;;3.55;2.15;;;;;;;;;;4939998;29;20766;-64
2022/05/05 15:37:36;;;;;;;3.80;2.50;;;;;;;;;;4945639;29;20234;-67
2022/05/05 15:40:04;;;;;;;2.53;2.25;;;;;;;;;;4939911;29;20246;-65
2022/05/05 15:42:32;;;;;;;3.40;2.78;;;;;;;;;;4945266;29;20829;-68
2022/05/05 15:44:59;;;;;;;2.60;2.40;;;;;;;;;;4944653;29;20215;-66
2022/05/05 15:47:27;;;;;;;4.80;3.05;;;;;;;;;;4945746;28;20211;-66
2022/05/05 15:49:55;;;;;;;2.83;2.63;;;;;;;;;;4934717;28;20221;-65